sensor_id;sensor_type;location;lat;lon;timestamp;P1;durP1;ratioP1;P2;durP2;ratioP2
84889;SDS011;75153;52.222;5.160;2024-03-07T00:02:37;40.53;;;19.42;;
84889;SDS011;75153;52.222;5.160;2024-03-07T00:05:03;42.78;;;19.90;;
84889;SDS011;75153;52.222;5.160;2024-03-07T00:07:28;38.73;;;18.37;;
84889;SDS011;75153;52.222;5.160;2024-03-07T00:09:54;40.60;;;19.43;;
84889;SDS011;75153;52.222;5.160;2024-03-07T00:12:21;39.15;;;19.05;;
84889;SDS011;75153;52.222;5.160;2024-03-07T00:14:47;40.45;;;18.92;;
84889;SDS011;75153;52.222;5.160;2024-03-07T00:17:13;39.17;;;19.40;;
84889;SDS011;75153;52.222;5.160;2024-03-07T00:19:39;42.03;;;19.75;;
84889;SDS011;75153;52.222;5.160;2024-03-07T00:22:04;39.40;;;19.13;;
84889;SDS011;75153;52.222;5.160;2024-03-07T00:24:29;39.97;;;19.17;;
84889;SDS011;75153;52.222;5.160;2024-03-07T00:26:56;40.15;;;19.40;;
84889;SDS011;75153;52.222;5.160;2024-03-07T00:29:22;44.15;;;19.90;;
84889;SDS011;75153;52.222;5.160;2024-03-07T00:31:48;38.53;;;18.27;;
84889;SDS011;75153;52.222;5.160;2024-03-07T00:34:13;44.93;;;20.53;;
84889;SDS011;75153;52.222;5.160;2024-03-07T00:36:41;47.95;;;21.33;;
84889;SDS011;75153;52.222;5.160;2024-03-07T00:39:07;45.38;;;21.85;;
84889;SDS011;75153;52.222;5.160;2024-03-07T00:41:39;42.38;;;20.40;;
84889;SDS011;75153;52.222;5.160;2024-03-07T00:44:05;41.08;;;19.00;;
84889;SDS011;75153;52.222;5.160;2024-03-07T00:46:31;39.43;;;18.63;;
84889;SDS011;75153;52.222;5.160;2024-03-07T00:48:56;44.55;;;20.35;;
84889;SDS011;75153;52.222;5.160;2024-03-07T00:51:22;43.30;;;21.30;;
84889;SDS011;75153;52.222;5.160;2024-03-07T00:53:47;43.57;;;19.60;;
84889;SDS011;75153;52.222;5.160;2024-03-07T00:56:13;37.15;;;19.20;;
84889;SDS011;75153;52.222;5.160;2024-03-07T00:58:39;43.03;;;19.07;;
84889;SDS011;75153;52.222;5.160;2024-03-07T01:01:04;45.43;;;19.87;;
84889;SDS011;75153;52.222;5.160;2024-03-07T01:03:29;41.87;;;20.77;;
84889;SDS011;75153;52.222;5.160;2024-03-07T01:05:55;42.53;;;19.50;;
84889;SDS011;75153;52.222;5.160;2024-03-07T01:08:20;38.63;;;18.93;;
84889;SDS011;75153;52.222;5.160;2024-03-07T01:10:45;48.92;;;21.33;;
84889;SDS011;75153;52.222;5.160;2024-03-07T01:13:11;43.20;;;19.58;;
84889;SDS011;75153;52.222;5.160;2024-03-07T01:15:44;43.60;;;20.27;;
84889;SDS011;75153;52.222;5.160;2024-03-07T01:18:13;42.13;;;19.95;;
84889;SDS011;75153;52.222;5.160;2024-03-07T01:20:39;46.05;;;20.80;;
84889;SDS011;75153;52.222;5.160;2024-03-07T01:23:04;49.75;;;22.33;;
84889;SDS011;75153;52.222;5.160;2024-03-07T01:25:29;43.97;;;20.43;;
84889;SDS011;75153;52.222;5.160;2024-03-07T01:27:59;45.10;;;21.67;;
84889;SDS011;75153;52.222;5.160;2024-03-07T01:30:25;45.85;;;21.23;;
84889;SDS011;75153;52.222;5.160;2024-03-07T01:32:53;49.22;;;22.80;;
84889;SDS011;75153;52.222;5.160;2024-03-07T01:35:21;44.55;;;20.27;;
84889;SDS011;75153;52.222;5.160;2024-03-07T01:37:47;47.03;;;21.07;;
84889;SDS011;75153;52.222;5.160;2024-03-07T01:40:12;44.57;;;20.70;;
84889;SDS011;75153;52.222;5.160;2024-03-07T01:42:39;42.47;;;20.20;;
84889;SDS011;75153;52.222;5.160;2024-03-07T01:45:05;50.03;;;21.75;;
84889;SDS011;75153;52.222;5.160;2024-03-07T01:47:32;47.70;;;22.23;;
84889;SDS011;75153;52.222;5.160;2024-03-07T01:49:58;43.67;;;20.55;;
84889;SDS011;75153;52.222;5.160;2024-03-07T01:52:24;50.75;;;21.33;;
84889;SDS011;75153;52.222;5.160;2024-03-07T01:54:50;45.45;;;21.63;;
84889;SDS011;75153;52.222;5.160;2024-03-07T01:57:16;46.30;;;21.00;;
84889;SDS011;75153;52.222;5.160;2024-03-07T01:59:43;41.60;;;19.30;;
84889;SDS011;75153;52.222;5.160;2024-03-07T02:02:09;49.90;;;21.77;;
84889;SDS011;75153;52.222;5.160;2024-03-07T02:04:35;44.97;;;20.67;;
84889;SDS011;75153;52.222;5.160;2024-03-07T02:07:00;45.20;;;21.35;;
84889;SDS011;75153;52.222;5.160;2024-03-07T02:09:25;46.10;;;21.07;;
84889;SDS011;75153;52.222;5.160;2024-03-07T02:11:51;42.10;;;20.97;;
84889;SDS011;75153;52.222;5.160;2024-03-07T02:14:16;40.27;;;19.07;;
84889;SDS011;75153;52.222;5.160;2024-03-07T02:16:42;43.10;;;20.67;;
84889;SDS011;75153;52.222;5.160;2024-03-07T02:19:07;42.08;;;20.30;;
84889;SDS011;75153;52.222;5.160;2024-03-07T02:21:35;45.70;;;19.40;;
84889;SDS011;75153;52.222;5.160;2024-03-07T02:24:00;44.47;;;19.90;;
84889;SDS011;75153;52.222;5.160;2024-03-07T02:26:26;47.57;;;21.37;;
84889;SDS011;75153;52.222;5.160;2024-03-07T02:28:52;42.80;;;20.77;;
84889;SDS011;75153;52.222;5.160;2024-03-07T02:31:17;43.77;;;19.77;;
84889;SDS011;75153;52.222;5.160;2024-03-07T02:33:44;46.65;;;20.77;;
84889;SDS011;75153;52.222;5.160;2024-03-07T02:36:09;48.27;;;20.77;;
84889;SDS011;75153;52.222;5.160;2024-03-07T02:38:34;50.00;;;21.97;;
84889;SDS011;75153;52.222;5.160;2024-03-07T02:41:00;48.40;;;21.90;;
84889;SDS011;75153;52.222;5.160;2024-03-07T02:43:25;45.00;;;21.17;;
84889;SDS011;75153;52.222;5.160;2024-03-07T02:45:50;43.60;;;20.60;;
84889;SDS011;75153;52.222;5.160;2024-03-07T02:48:16;48.83;;;21.40;;
84889;SDS011;75153;52.222;5.160;2024-03-07T02:50:43;48.07;;;20.00;;
84889;SDS011;75153;52.222;5.160;2024-03-07T02:53:09;47.50;;;21.40;;
84889;SDS011;75153;52.222;5.160;2024-03-07T02:55:34;52.73;;;23.27;;
84889;SDS011;75153;52.222;5.160;2024-03-07T02:57:59;45.60;;;22.20;;
84889;SDS011;75153;52.222;5.160;2024-03-07T03:00:25;46.70;;;20.80;;
84889;SDS011;75153;52.222;5.160;2024-03-07T03:02:57;43.40;;;20.50;;
84889;SDS011;75153;52.222;5.160;2024-03-07T03:05:23;50.90;;;23.00;;
84889;SDS011;75153;52.222;5.160;2024-03-07T03:07:49;49.07;;;22.47;;
84889;SDS011;75153;52.222;5.160;2024-03-07T03:10:19;47.33;;;22.08;;
84889;SDS011;75153;52.222;5.160;2024-03-07T03:12:53;49.63;;;20.98;;
84889;SDS011;75153;52.222;5.160;2024-03-07T03:15:26;47.42;;;22.02;;
84889;SDS011;75153;52.222;5.160;2024-03-07T03:17:51;50.75;;;20.70;;
84889;SDS011;75153;52.222;5.160;2024-03-07T03:20:17;43.88;;;20.33;;
84889;SDS011;75153;52.222;5.160;2024-03-07T03:22:52;44.75;;;20.60;;
84889;SDS011;75153;52.222;5.160;2024-03-07T03:25:18;43.65;;;20.27;;
84889;SDS011;75153;52.222;5.160;2024-03-07T03:27:46;46.15;;;22.25;;
84889;SDS011;75153;52.222;5.160;2024-03-07T03:30:12;46.30;;;21.43;;
84889;SDS011;75153;52.222;5.160;2024-03-07T03:32:42;46.92;;;22.10;;
84889;SDS011;75153;52.222;5.160;2024-03-07T03:35:07;48.05;;;21.35;;
84889;SDS011;75153;52.222;5.160;2024-03-07T03:37:44;45.92;;;21.85;;
84889;SDS011;75153;52.222;5.160;2024-03-07T03:40:10;47.83;;;21.75;;
84889;SDS011;75153;52.222;5.160;2024-03-07T03:42:40;51.77;;;21.93;;
84889;SDS011;75153;52.222;5.160;2024-03-07T03:45:07;48.92;;;21.90;;
84889;SDS011;75153;52.222;5.160;2024-03-07T03:47:40;50.90;;;23.00;;
84889;SDS011;75153;52.222;5.160;2024-03-07T03:50:08;46.38;;;20.92;;
84889;SDS011;75153;52.222;5.160;2024-03-07T03:52:34;45.33;;;21.17;;
84889;SDS011;75153;52.222;5.160;2024-03-07T03:55:03;53.07;;;23.70;;
84889;SDS011;75153;52.222;5.160;2024-03-07T03:57:30;44.78;;;19.85;;
84889;SDS011;75153;52.222;5.160;2024-03-07T03:59:56;42.50;;;19.77;;
84889;SDS011;75153;52.222;5.160;2024-03-07T04:02:22;48.13;;;21.45;;
84889;SDS011;75153;52.222;5.160;2024-03-07T04:04:48;50.40;;;22.93;;
84889;SDS011;75153;52.222;5.160;2024-03-07T04:07:14;44.05;;;21.00;;
84889;SDS011;75153;52.222;5.160;2024-03-07T04:09:44;46.63;;;20.90;;
84889;SDS011;75153;52.222;5.160;2024-03-07T04:12:10;48.70;;;21.70;;
84889;SDS011;75153;52.222;5.160;2024-03-07T04:14:39;48.75;;;21.48;;
84889;SDS011;75153;52.222;5.160;2024-03-07T04:17:06;46.28;;;21.23;;
84889;SDS011;75153;52.222;5.160;2024-03-07T04:19:34;46.78;;;22.17;;
84889;SDS011;75153;52.222;5.160;2024-03-07T04:22:00;51.97;;;22.97;;
84889;SDS011;75153;52.222;5.160;2024-03-07T04:24:28;47.30;;;21.25;;
84889;SDS011;75153;52.222;5.160;2024-03-07T04:26:57;48.08;;;21.38;;
84889;SDS011;75153;52.222;5.160;2024-03-07T04:29:24;50.50;;;22.58;;
84889;SDS011;75153;52.222;5.160;2024-03-07T04:31:49;49.13;;;21.90;;
84889;SDS011;75153;52.222;5.160;2024-03-07T04:34:15;51.63;;;22.30;;
84889;SDS011;75153;52.222;5.160;2024-03-07T04:36:40;50.70;;;22.13;;
84889;SDS011;75153;52.222;5.160;2024-03-07T04:39:06;47.87;;;21.33;;
84889;SDS011;75153;52.222;5.160;2024-03-07T04:41:39;47.88;;;21.90;;
84889;SDS011;75153;52.222;5.160;2024-03-07T04:44:05;49.80;;;22.08;;
84889;SDS011;75153;52.222;5.160;2024-03-07T04:46:30;53.80;;;23.03;;
84889;SDS011;75153;52.222;5.160;2024-03-07T04:48:56;46.23;;;20.80;;
84889;SDS011;75153;52.222;5.160;2024-03-07T04:51:22;48.42;;;22.33;;
84889;SDS011;75153;52.222;5.160;2024-03-07T04:53:47;49.67;;;22.33;;
84889;SDS011;75153;52.222;5.160;2024-03-07T04:56:13;47.63;;;21.73;;
84889;SDS011;75153;52.222;5.160;2024-03-07T04:58:39;47.97;;;20.88;;
84889;SDS011;75153;52.222;5.160;2024-03-07T05:01:05;49.20;;;22.63;;
84889;SDS011;75153;52.222;5.160;2024-03-07T05:03:30;46.30;;;21.80;;
84889;SDS011;75153;52.222;5.160;2024-03-07T05:05:55;51.20;;;22.85;;
84889;SDS011;75153;52.222;5.160;2024-03-07T05:08:22;44.58;;;21.63;;
84889;SDS011;75153;52.222;5.160;2024-03-07T05:10:47;47.40;;;21.13;;
84889;SDS011;75153;52.222;5.160;2024-03-07T05:13:13;47.27;;;20.80;;
84889;SDS011;75153;52.222;5.160;2024-03-07T05:15:38;50.00;;;22.80;;
84889;SDS011;75153;52.222;5.160;2024-03-07T05:18:04;45.90;;;21.07;;
84889;SDS011;75153;52.222;5.160;2024-03-07T05:20:29;54.42;;;23.02;;
84889;SDS011;75153;52.222;5.160;2024-03-07T05:22:55;53.70;;;24.23;;
84889;SDS011;75153;52.222;5.160;2024-03-07T05:25:20;52.47;;;23.87;;
84889;SDS011;75153;52.222;5.160;2024-03-07T05:27:47;50.55;;;22.35;;
84889;SDS011;75153;52.222;5.160;2024-03-07T05:30:16;47.25;;;21.40;;
84889;SDS011;75153;52.222;5.160;2024-03-07T05:32:42;45.58;;;21.13;;
84889;SDS011;75153;52.222;5.160;2024-03-07T05:35:08;43.70;;;20.07;;
84889;SDS011;75153;52.222;5.160;2024-03-07T05:37:34;47.90;;;22.73;;
84889;SDS011;75153;52.222;5.160;2024-03-07T05:39:59;49.60;;;22.23;;
84889;SDS011;75153;52.222;5.160;2024-03-07T05:42:25;48.08;;;21.48;;
84889;SDS011;75153;52.222;5.160;2024-03-07T05:44:51;52.27;;;23.07;;
84889;SDS011;75153;52.222;5.160;2024-03-07T05:47:16;50.65;;;22.88;;
84889;SDS011;75153;52.222;5.160;2024-03-07T05:49:42;48.17;;;22.40;;
84889;SDS011;75153;52.222;5.160;2024-03-07T05:52:08;50.25;;;22.77;;
84889;SDS011;75153;52.222;5.160;2024-03-07T05:54:34;49.38;;;21.83;;
84889;SDS011;75153;52.222;5.160;2024-03-07T05:57:00;49.30;;;21.88;;
84889;SDS011;75153;52.222;5.160;2024-03-07T05:59:26;46.57;;;20.73;;
84889;SDS011;75153;52.222;5.160;2024-03-07T06:01:56;49.40;;;22.70;;
84889;SDS011;75153;52.222;5.160;2024-03-07T06:04:22;48.70;;;21.85;;
84889;SDS011;75153;52.222;5.160;2024-03-07T06:06:48;44.08;;;21.27;;
84889;SDS011;75153;52.222;5.160;2024-03-07T06:09:13;56.65;;;23.58;;
84889;SDS011;75153;52.222;5.160;2024-03-07T06:11:40;46.07;;;20.80;;
84889;SDS011;75153;52.222;5.160;2024-03-07T06:14:09;51.95;;;23.52;;
84889;SDS011;75153;52.222;5.160;2024-03-07T06:16:39;56.42;;;24.52;;
84889;SDS011;75153;52.222;5.160;2024-03-07T06:19:05;53.53;;;24.45;;
84889;SDS011;75153;52.222;5.160;2024-03-07T06:21:35;54.35;;;24.77;;
84889;SDS011;75153;52.222;5.160;2024-03-07T06:24:04;52.83;;;24.00;;
84889;SDS011;75153;52.222;5.160;2024-03-07T06:26:32;48.50;;;22.10;;
84889;SDS011;75153;52.222;5.160;2024-03-07T06:29:17;62.97;;;26.23;;
84889;SDS011;75153;52.222;5.160;2024-03-07T06:31:43;50.92;;;23.92;;
84889;SDS011;75153;52.222;5.160;2024-03-07T06:34:13;46.55;;;22.35;;
84889;SDS011;75153;52.222;5.160;2024-03-07T06:36:38;48.23;;;22.37;;
84889;SDS011;75153;52.222;5.160;2024-03-07T06:39:05;48.55;;;21.80;;
84889;SDS011;75153;52.222;5.160;2024-03-07T06:41:32;53.72;;;23.40;;
84889;SDS011;75153;52.222;5.160;2024-03-07T06:44:01;47.25;;;21.77;;
84889;SDS011;75153;52.222;5.160;2024-03-07T06:46:27;43.87;;;20.73;;
84889;SDS011;75153;52.222;5.160;2024-03-07T06:48:53;48.78;;;23.02;;
84889;SDS011;75153;52.222;5.160;2024-03-07T06:51:19;45.90;;;21.00;;
84889;SDS011;75153;52.222;5.160;2024-03-07T06:53:45;48.30;;;22.80;;
84889;SDS011;75153;52.222;5.160;2024-03-07T06:56:13;50.88;;;22.27;;
84889;SDS011;75153;52.222;5.160;2024-03-07T06:58:39;49.10;;;23.67;;
84889;SDS011;75153;52.222;5.160;2024-03-07T07:01:05;44.03;;;20.70;;
84889;SDS011;75153;52.222;5.160;2024-03-07T07:03:34;45.78;;;20.42;;
84889;SDS011;75153;52.222;5.160;2024-03-07T07:06:00;46.92;;;20.75;;
84889;SDS011;75153;52.222;5.160;2024-03-07T07:08:27;41.45;;;20.73;;
84889;SDS011;75153;52.222;5.160;2024-03-07T07:10:55;45.50;;;21.13;;
84889;SDS011;75153;52.222;5.160;2024-03-07T07:13:22;46.13;;;22.50;;
84889;SDS011;75153;52.222;5.160;2024-03-07T07:15:51;45.03;;;21.40;;
84889;SDS011;75153;52.222;5.160;2024-03-07T07:18:18;43.03;;;19.77;;
84889;SDS011;75153;52.222;5.160;2024-03-07T07:20:44;40.55;;;19.80;;
84889;SDS011;75153;52.222;5.160;2024-03-07T07:23:09;40.17;;;20.70;;
84889;SDS011;75153;52.222;5.160;2024-03-07T07:25:34;47.33;;;22.20;;
84889;SDS011;75153;52.222;5.160;2024-03-07T07:28:00;39.30;;;19.30;;
84889;SDS011;75153;52.222;5.160;2024-03-07T07:30:29;37.55;;;18.67;;
84889;SDS011;75153;52.222;5.160;2024-03-07T07:32:54;39.93;;;18.50;;
84889;SDS011;75153;52.222;5.160;2024-03-07T07:35:20;37.47;;;19.20;;
84889;SDS011;75153;52.222;5.160;2024-03-07T07:37:47;36.65;;;18.27;;
84889;SDS011;75153;52.222;5.160;2024-03-07T07:40:15;36.80;;;18.50;;
84889;SDS011;75153;52.222;5.160;2024-03-07T07:42:45;35.90;;;18.07;;
84889;SDS011;75153;52.222;5.160;2024-03-07T07:45:12;42.03;;;21.42;;
84889;SDS011;75153;52.222;5.160;2024-03-07T07:47:59;41.17;;;19.55;;
84889;SDS011;75153;52.222;5.160;2024-03-07T07:50:24;32.22;;;17.38;;
84889;SDS011;75153;52.222;5.160;2024-03-07T07:52:50;39.97;;;20.30;;
84889;SDS011;75153;52.222;5.160;2024-03-07T07:55:18;31.38;;;16.10;;
84889;SDS011;75153;52.222;5.160;2024-03-07T07:57:55;31.25;;;16.42;;
84889;SDS011;75153;52.222;5.160;2024-03-07T08:00:22;32.20;;;16.58;;
84889;SDS011;75153;52.222;5.160;2024-03-07T08:02:54;33.03;;;17.03;;
84889;SDS011;75153;52.222;5.160;2024-03-07T08:05:24;30.90;;;16.13;;
84889;SDS011;75153;52.222;5.160;2024-03-07T08:07:54;32.47;;;16.88;;
84889;SDS011;75153;52.222;5.160;2024-03-07T08:10:23;38.15;;;19.50;;
84889;SDS011;75153;52.222;5.160;2024-03-07T08:12:49;34.10;;;17.60;;
84889;SDS011;75153;52.222;5.160;2024-03-07T08:15:15;34.77;;;16.73;;
84889;SDS011;75153;52.222;5.160;2024-03-07T08:20:11;32.40;;;17.37;;
84889;SDS011;75153;52.222;5.160;2024-03-07T08:22:41;31.85;;;17.23;;
84889;SDS011;75153;52.222;5.160;2024-03-07T08:25:08;33.80;;;16.40;;
84889;SDS011;75153;52.222;5.160;2024-03-07T08:27:38;32.42;;;15.73;;
84889;SDS011;75153;52.222;5.160;2024-03-07T08:30:05;36.05;;;17.70;;
84889;SDS011;75153;52.222;5.160;2024-03-07T08:32:38;30.60;;;16.57;;
84889;SDS011;75153;52.222;5.160;2024-03-07T08:35:05;29.65;;;16.67;;
84889;SDS011;75153;52.222;5.160;2024-03-07T08:37:40;32.33;;;15.43;;
84889;SDS011;75153;52.222;5.160;2024-03-07T08:40:07;33.90;;;18.10;;
84889;SDS011;75153;52.222;5.160;2024-03-07T08:42:35;27.80;;;15.15;;
84889;SDS011;75153;52.222;5.160;2024-03-07T08:45:02;29.73;;;16.07;;
84889;SDS011;75153;52.222;5.160;2024-03-07T08:47:31;25.20;;;14.05;;
84889;SDS011;75153;52.222;5.160;2024-03-07T08:49:57;26.60;;;13.57;;
84889;SDS011;75153;52.222;5.160;2024-03-07T08:52:23;31.52;;;16.13;;
84889;SDS011;75153;52.222;5.160;2024-03-07T08:54:49;26.63;;;13.60;;
84889;SDS011;75153;52.222;5.160;2024-03-07T08:57:14;28.20;;;14.93;;
84889;SDS011;75153;52.222;5.160;2024-03-07T08:59:42;28.50;;;14.80;;
84889;SDS011;75153;52.222;5.160;2024-03-07T09:02:08;27.50;;;14.65;;
84889;SDS011;75153;52.222;5.160;2024-03-07T09:04:35;28.23;;;15.93;;
84889;SDS011;75153;52.222;5.160;2024-03-07T09:07:01;22.67;;;12.93;;
84889;SDS011;75153;52.222;5.160;2024-03-07T09:09:26;27.37;;;14.57;;
84889;SDS011;75153;52.222;5.160;2024-03-07T09:11:52;28.58;;;14.77;;
84889;SDS011;75153;52.222;5.160;2024-03-07T09:14:17;23.03;;;13.53;;
84889;SDS011;75153;52.222;5.160;2024-03-07T09:16:42;23.40;;;12.57;;
84889;SDS011;75153;52.222;5.160;2024-03-07T09:19:08;23.98;;;13.75;;
84889;SDS011;75153;52.222;5.160;2024-03-07T09:21:39;20.53;;;12.80;;
84889;SDS011;75153;52.222;5.160;2024-03-07T09:24:05;22.55;;;13.05;;
84889;SDS011;75153;52.222;5.160;2024-03-07T09:26:32;23.55;;;13.48;;
84889;SDS011;75153;52.222;5.160;2024-03-07T09:28:58;20.52;;;12.43;;
84889;SDS011;75153;52.222;5.160;2024-03-07T09:31:26;20.42;;;11.68;;
84889;SDS011;75153;52.222;5.160;2024-03-07T09:33:51;21.10;;;13.10;;
84889;SDS011;75153;52.222;5.160;2024-03-07T09:36:17;19.20;;;12.07;;
84889;SDS011;75153;52.222;5.160;2024-03-07T09:38:44;22.70;;;12.03;;
84889;SDS011;75153;52.222;5.160;2024-03-07T09:41:09;20.80;;;13.18;;
84889;SDS011;75153;52.222;5.160;2024-03-07T09:43:35;16.80;;;10.50;;
84889;SDS011;75153;52.222;5.160;2024-03-07T09:46:02;15.77;;;10.35;;
84889;SDS011;75153;52.222;5.160;2024-03-07T09:48:30;15.57;;;10.65;;
84889;SDS011;75153;52.222;5.160;2024-03-07T09:50:55;18.70;;;10.83;;
84889;SDS011;75153;52.222;5.160;2024-03-07T09:53:24;16.80;;;9.87;;
84889;SDS011;75153;52.222;5.160;2024-03-07T09:55:51;17.85;;;10.45;;
84889;SDS011;75153;52.222;5.160;2024-03-07T09:58:19;16.90;;;11.05;;
84889;SDS011;75153;52.222;5.160;2024-03-07T10:00:45;14.80;;;9.23;;
84889;SDS011;75153;52.222;5.160;2024-03-07T10:03:15;16.48;;;10.80;;
84889;SDS011;75153;52.222;5.160;2024-03-07T10:05:45;13.33;;;9.07;;
84889;SDS011;75153;52.222;5.160;2024-03-07T10:08:11;14.52;;;9.50;;
84889;SDS011;75153;52.222;5.160;2024-03-07T10:10:37;16.75;;;9.98;;
84889;SDS011;75153;52.222;5.160;2024-03-07T10:13:02;18.23;;;10.50;;
84889;SDS011;75153;52.222;5.160;2024-03-07T10:15:32;14.98;;;9.30;;
84889;SDS011;75153;52.222;5.160;2024-03-07T10:17:59;15.83;;;8.73;;
84889;SDS011;75153;52.222;5.160;2024-03-07T10:20:25;14.63;;;9.15;;
84889;SDS011;75153;52.222;5.160;2024-03-07T10:22:52;15.98;;;9.40;;
84889;SDS011;75153;52.222;5.160;2024-03-07T10:25:18;17.83;;;10.30;;
84889;SDS011;75153;52.222;5.160;2024-03-07T10:27:46;15.57;;;9.10;;
84889;SDS011;75153;52.222;5.160;2024-03-07T10:30:15;19.08;;;10.93;;
84889;SDS011;75153;52.222;5.160;2024-03-07T10:32:46;15.57;;;9.15;;
84889;SDS011;75153;52.222;5.160;2024-03-07T10:35:12;15.13;;;9.17;;
84889;SDS011;75153;52.222;5.160;2024-03-07T10:37:39;16.25;;;9.52;;
84889;SDS011;75153;52.222;5.160;2024-03-07T10:40:05;16.48;;;9.55;;
84889;SDS011;75153;52.222;5.160;2024-03-07T10:42:42;18.75;;;10.63;;
84889;SDS011;75153;52.222;5.160;2024-03-07T10:45:11;16.55;;;10.10;;
84889;SDS011;75153;52.222;5.160;2024-03-07T10:47:42;17.70;;;9.80;;
84889;SDS011;75153;52.222;5.160;2024-03-07T10:52:49;18.55;;;9.98;;
84889;SDS011;75153;52.222;5.160;2024-03-07T10:55:20;19.77;;;11.10;;
84889;SDS011;75153;52.222;5.160;2024-03-07T11:00:53;18.13;;;10.17;;
84889;SDS011;75153;52.222;5.160;2024-03-07T11:03:23;20.83;;;11.70;;
84889;SDS011;75153;52.222;5.160;2024-03-07T11:05:49;21.38;;;11.65;;
84889;SDS011;75153;52.222;5.160;2024-03-07T11:08:16;18.40;;;10.47;;
84889;SDS011;75153;52.222;5.160;2024-03-07T11:10:42;16.60;;;9.02;;
84889;SDS011;75153;52.222;5.160;2024-03-07T11:13:09;20.52;;;10.98;;
84889;SDS011;75153;52.222;5.160;2024-03-07T11:15:37;17.08;;;10.43;;
84889;SDS011;75153;52.222;5.160;2024-03-07T11:18:06;19.33;;;10.73;;
84889;SDS011;75153;52.222;5.160;2024-03-07T11:20:39;16.50;;;9.73;;
84889;SDS011;75153;52.222;5.160;2024-03-07T11:26:08;16.23;;;8.95;;
84889;SDS011;75153;52.222;5.160;2024-03-07T11:28:35;15.88;;;9.68;;
84889;SDS011;75153;52.222;5.160;2024-03-07T11:31:15;18.40;;;9.90;;
84889;SDS011;75153;52.222;5.160;2024-03-07T11:36:44;18.75;;;9.63;;
84889;SDS011;75153;52.222;5.160;2024-03-07T11:42:04;15.50;;;9.18;;
84889;SDS011;75153;52.222;5.160;2024-03-07T11:44:31;17.98;;;9.52;;
84889;SDS011;75153;52.222;5.160;2024-03-07T11:47:00;14.43;;;8.88;;
84889;SDS011;75153;52.222;5.160;2024-03-07T11:49:34;15.75;;;9.38;;
84889;SDS011;75153;52.222;5.160;2024-03-07T11:52:03;17.40;;;9.40;;
84889;SDS011;75153;52.222;5.160;2024-03-07T11:54:41;19.45;;;9.95;;
84889;SDS011;75153;52.222;5.160;2024-03-07T11:57:20;16.00;;;9.40;;
84889;SDS011;75153;52.222;5.160;2024-03-07T11:59:51;14.82;;;9.27;;
84889;SDS011;75153;52.222;5.160;2024-03-07T12:02:17;15.23;;;9.35;;
84889;SDS011;75153;52.222;5.160;2024-03-07T12:04:46;21.05;;;11.65;;
84889;SDS011;75153;52.222;5.160;2024-03-07T12:07:13;18.33;;;9.90;;
84889;SDS011;75153;52.222;5.160;2024-03-07T12:09:42;18.57;;;10.50;;
84889;SDS011;75153;52.222;5.160;2024-03-07T12:12:10;17.42;;;10.52;;
84889;SDS011;75153;52.222;5.160;2024-03-07T12:14:37;19.40;;;10.65;;
84889;SDS011;75153;52.222;5.160;2024-03-07T12:17:04;16.70;;;9.70;;
84889;SDS011;75153;52.222;5.160;2024-03-07T12:19:31;17.85;;;9.93;;
84889;SDS011;75153;52.222;5.160;2024-03-07T12:22:01;18.40;;;9.93;;
84889;SDS011;75153;52.222;5.160;2024-03-07T12:24:27;18.20;;;9.55;;
84889;SDS011;75153;52.222;5.160;2024-03-07T12:27:03;17.75;;;9.52;;
84889;SDS011;75153;52.222;5.160;2024-03-07T12:29:30;17.15;;;10.55;;
84889;SDS011;75153;52.222;5.160;2024-03-07T12:31:55;17.37;;;9.90;;
84889;SDS011;75153;52.222;5.160;2024-03-07T12:34:21;17.95;;;10.90;;
84889;SDS011;75153;52.222;5.160;2024-03-07T12:36:46;19.07;;;10.40;;
84889;SDS011;75153;52.222;5.160;2024-03-07T12:39:22;17.33;;;10.53;;
84889;SDS011;75153;52.222;5.160;2024-03-07T12:41:52;17.48;;;9.98;;
84889;SDS011;75153;52.222;5.160;2024-03-07T12:44:20;17.45;;;10.10;;
84889;SDS011;75153;52.222;5.160;2024-03-07T12:46:47;15.73;;;9.40;;
84889;SDS011;75153;52.222;5.160;2024-03-07T12:49:14;16.27;;;9.70;;
84889;SDS011;75153;52.222;5.160;2024-03-07T12:51:43;17.25;;;9.95;;
84889;SDS011;75153;52.222;5.160;2024-03-07T12:54:09;16.98;;;9.88;;
84889;SDS011;75153;52.222;5.160;2024-03-07T12:56:35;20.00;;;10.85;;
84889;SDS011;75153;52.222;5.160;2024-03-07T12:59:05;19.73;;;9.67;;
84889;SDS011;75153;52.222;5.160;2024-03-07T13:01:37;14.30;;;8.95;;
84889;SDS011;75153;52.222;5.160;2024-03-07T13:04:08;15.20;;;8.43;;
84889;SDS011;75153;52.222;5.160;2024-03-07T13:06:35;20.20;;;9.80;;
84889;SDS011;75153;52.222;5.160;2024-03-07T13:09:01;18.43;;;10.10;;
84889;SDS011;75153;52.222;5.160;2024-03-07T13:11:26;16.42;;;9.77;;
84889;SDS011;75153;52.222;5.160;2024-03-07T13:13:55;14.80;;;9.00;;
84889;SDS011;75153;52.222;5.160;2024-03-07T13:16:22;16.65;;;9.38;;
84889;SDS011;75153;52.222;5.160;2024-03-07T13:18:53;14.67;;;8.07;;
84889;SDS011;75153;52.222;5.160;2024-03-07T13:21:19;17.73;;;10.23;;
84889;SDS011;75153;52.222;5.160;2024-03-07T13:23:45;15.23;;;9.15;;
84889;SDS011;75153;52.222;5.160;2024-03-07T13:26:11;18.15;;;10.93;;
84889;SDS011;75153;52.222;5.160;2024-03-07T13:28:42;15.97;;;9.77;;
84889;SDS011;75153;52.222;5.160;2024-03-07T13:31:09;14.85;;;9.35;;
84889;SDS011;75153;52.222;5.160;2024-03-07T13:33:37;20.55;;;10.60;;
84889;SDS011;75153;52.222;5.160;2024-03-07T13:36:02;15.77;;;8.73;;
84889;SDS011;75153;52.222;5.160;2024-03-07T13:38:29;15.90;;;9.70;;
84889;SDS011;75153;52.222;5.160;2024-03-07T13:40:55;15.77;;;9.13;;
84889;SDS011;75153;52.222;5.160;2024-03-07T13:43:22;16.02;;;9.90;;
84889;SDS011;75153;52.222;5.160;2024-03-07T13:45:48;14.40;;;9.38;;
84889;SDS011;75153;52.222;5.160;2024-03-07T13:48:13;15.70;;;9.60;;
84889;SDS011;75153;52.222;5.160;2024-03-07T13:50:42;14.55;;;9.15;;
84889;SDS011;75153;52.222;5.160;2024-03-07T13:53:13;17.02;;;10.82;;
84889;SDS011;75153;52.222;5.160;2024-03-07T14:09:35;19.23;;;10.35;;
84889;SDS011;75153;52.222;5.160;2024-03-07T14:12:31;18.48;;;11.55;;
84889;SDS011;75153;52.222;5.160;2024-03-07T14:30:21;18.67;;;11.52;;
84889;SDS011;75153;52.222;5.160;2024-03-07T14:33:05;16.83;;;10.83;;
84889;SDS011;75153;52.222;5.160;2024-03-07T14:40:48;16.52;;;10.80;;
84889;SDS011;75153;52.222;5.160;2024-03-07T14:43:16;19.98;;;11.98;;
84889;SDS011;75153;52.222;5.160;2024-03-07T14:45:44;16.47;;;10.83;;
84889;SDS011;75153;52.222;5.160;2024-03-07T14:48:12;15.57;;;9.65;;
84889;SDS011;75153;52.222;5.160;2024-03-07T14:50:42;14.55;;;9.40;;
84889;SDS011;75153;52.222;5.160;2024-03-07T14:53:10;17.65;;;10.93;;
84889;SDS011;75153;52.222;5.160;2024-03-07T14:55:37;15.80;;;9.52;;
84889;SDS011;75153;52.222;5.160;2024-03-07T14:58:05;15.30;;;10.03;;
84889;SDS011;75153;52.222;5.160;2024-03-07T15:00:35;14.52;;;9.30;;
84889;SDS011;75153;52.222;5.160;2024-03-07T15:03:06;15.20;;;9.63;;
84889;SDS011;75153;52.222;5.160;2024-03-07T15:05:34;15.45;;;9.63;;
84889;SDS011;75153;52.222;5.160;2024-03-07T15:08:00;15.90;;;9.27;;
84889;SDS011;75153;52.222;5.160;2024-03-07T15:10:35;13.53;;;9.37;;
84889;SDS011;75153;52.222;5.160;2024-03-07T15:13:01;15.10;;;9.50;;
84889;SDS011;75153;52.222;5.160;2024-03-07T15:15:30;14.23;;;8.70;;
84889;SDS011;75153;52.222;5.160;2024-03-07T15:17:56;13.48;;;7.95;;